Time;durP1;ratioP1;P1;durP2;ratioP2;P2;SDS_P1;SDS_P2;PMS_P1;PMS_P2;Temp;Humidity;BMP_temperature;BMP_pressure;BME280_temperature;BME280_humidity;BME280_pressure;Samples;Min_cycle;Max_cycle;Signal;HPM_P1;HPM_P2
2021/08/20 00:02:09;;;;;;;3.80;3.40;;;16.40;99.90;;;;;;5029231;28;20173;-70
2021/08/20 00:04:35;;;;;;;4.30;3.63;;;16.40;99.90;;;;;;5013199;28;20619;-70
2021/08/20 00:07:00;;;;;;;4.63;3.63;;;16.40;99.90;;;;;;5013210;28;20216;-69
2021/08/20 00:09:27;;;;;;;3.60;3.30;;;16.30;99.90;;;;;;5013174;28;20233;-70
2021/08/20 00:11:52;;;;;;;4.50;4.07;;;16.30;99.90;;;;;;5013233;28;20573;-69
2021/08/20 00:14:18;;;;;;;4.60;4.20;;;16.30;99.90;;;;;;5012966;28;20392;-69
2021/08/20 00:16:44;;;;;;;4.00;3.60;;;16.30;99.90;;;;;;5031043;28;20602;-69
2021/08/20 00:19:09;;;;;;;3.43;3.13;;;16.30;99.90;;;;;;5032759;28;20211;-70
2021/08/20 00:21:35;;;;;;;5.30;3.90;;;16.30;99.90;;;;;;5032848;28;20830;-69
2021/08/20 00:24:01;;;;;;;4.17;3.77;;;16.20;99.90;;;;;;5032940;28;20153;-70
2021/08/20 00:26:26;;;;;;;4.30;3.50;;;16.20;99.90;;;;;;5032618;28;20447;-69
2021/08/20 00:28:52;;;;;;;3.90;3.60;;;16.20;99.90;;;;;;5032620;28;20149;-69
2021/08/20 00:31:18;;;;;;;4.80;3.70;;;16.10;99.90;;;;;;5032573;28;20214;-70
2021/08/20 00:33:43;;;;;;;5.87;4.07;;;16.10;99.90;;;;;;5020140;28;20173;-70
2021/08/20 00:36:09;;;;;;;4.40;4.00;;;16.10;99.90;;;;;;5012812;28;20582;-69
2021/08/20 00:38:38;;;;;;;4.87;3.60;;;16.10;99.90;;;;;;5012780;28;20235;-70
2021/08/20 00:41:09;;;;;;;5.70;4.37;;;16.00;99.90;;;;;;5012784;28;20216;-70
2021/08/20 00:43:35;;;;;;;4.43;3.77;;;16.00;99.90;;;;;;5012596;28;20905;-70
2021/08/20 00:46:02;;;;;;;4.83;4.00;;;16.00;99.90;;;;;;5012389;28;20440;-70
2021/08/20 00:48:28;;;;;;;4.07;3.73;;;16.00;99.90;;;;;;5012727;28;20164;-70
2021/08/20 00:51:05;;;;;;;5.80;4.10;;;16.00;99.90;;;;;;5032003;28;20415;-69
2021/08/20 00:53:34;;;;;;;4.50;4.07;;;16.00;99.90;;;;;;5032462;28;20403;-70
2021/08/20 00:56:02;;;;;;;6.17;4.77;;;16.00;99.90;;;;;;5032247;28;20396;-69
2021/08/20 00:58:31;;;;;;;5.43;4.20;;;16.00;99.90;;;;;;5032214;28;20392;-69
2021/08/20 01:00:56;;;;;;;5.30;4.30;;;16.00;99.90;;;;;;5032301;28;20387;-70
2021/08/20 01:03:22;;;;;;;6.87;3.63;;;16.00;99.90;;;;;;5032247;28;20526;-69
2021/08/20 01:05:51;;;;;;;5.20;3.53;;;16.00;99.90;;;;;;5016141;28;20181;-69
2021/08/20 01:08:17;;;;;;;4.00;3.60;;;16.10;99.90;;;;;;5032389;28;20530;-69
2021/08/20 01:10:43;;;;;;;5.50;3.83;;;16.10;99.90;;;;;;5032129;28;20437;-70
2021/08/20 01:13:08;;;;;;;4.17;3.77;;;16.10;99.90;;;;;;5032430;28;20874;-70
2021/08/20 01:15:34;;;;;;;4.30;3.33;;;16.10;99.90;;;;;;5032114;28;20168;-70
2021/08/20 01:17:59;;;;;;;7.57;4.77;;;16.10;99.90;;;;;;5032105;28;20157;-69
2021/08/20 01:20:25;;;;;;;8.60;6.30;;;16.10;99.90;;;;;;5032035;28;20247;-69
2021/08/20 01:22:50;;;;;;;6.00;4.50;;;16.10;99.90;;;;;;5032062;28;20263;-70
2021/08/20 01:25:16;;;;;;;4.30;3.90;;;16.10;99.90;;;;;;5031880;28;20164;-70
2021/08/20 01:27:41;;;;;;;7.40;3.80;;;16.10;99.90;;;;;;5031906;28;20199;-70
2021/08/20 01:30:08;;;;;;;4.40;3.93;;;16.10;99.90;;;;;;5032090;28;20168;-69
2021/08/20 01:32:33;;;;;;;6.60;4.10;;;16.10;99.90;;;;;;5029702;28;20168;-70
2021/08/20 01:34:59;;;;;;;3.20;2.90;;;16.20;99.90;;;;;;5012243;28;20483;-69
2021/08/20 01:37:24;;;;;;;4.37;3.80;;;16.20;99.90;;;;;;5012496;28;20581;-69
2021/08/20 01:39:50;;;;;;;5.20;3.80;;;16.20;99.90;;;;;;5015023;28;20177;-70
2021/08/20 01:42:15;;;;;;;4.70;4.20;;;16.20;99.90;;;;;;5031825;28;20223;-70
2021/08/20 01:44:41;;;;;;;4.40;4.00;;;16.20;99.90;;;;;;5031829;28;20169;-70
2021/08/20 01:47:10;;;;;;;10.13;4.20;;;16.10;99.90;;;;;;5031741;28;20251;-70
2021/08/20 01:49:38;;;;;;;4.70;3.60;;;16.20;99.90;;;;;;5031831;28;20567;-70
2021/08/20 01:52:03;;;;;;;4.73;3.90;;;16.10;99.90;;;;;;5031871;28;20823;-70
2021/08/20 01:54:29;;;;;;;6.67;4.80;;;16.20;99.90;;;;;;5033567;28;20419;-70
2021/08/20 01:56:54;;;;;;;3.70;3.40;;;16.20;99.90;;;;;;5035399;28;20211;-70
2021/08/20 01:59:20;;;;;;;4.50;3.97;;;16.20;99.90;;;;;;5035262;28;20623;-70
2021/08/20 02:01:45;;;;;;;7.37;3.67;;;16.20;99.90;;;;;;5035416;28;20179;-70
2021/08/20 02:04:11;;;;;;;3.73;3.40;;;16.20;99.90;;;;;;5034997;28;20173;-69
2021/08/20 02:06:36;;;;;;;6.60;4.50;;;16.20;99.90;;;;;;5035325;28;20711;-70
2021/08/20 02:09:03;;;;;;;6.00;3.90;;;16.20;99.90;;;;;;5035118;28;20223;-69
2021/08/20 02:11:28;;;;;;;4.93;4.13;;;16.20;99.90;;;;;;5035065;28;20164;-70
2021/08/20 02:13:54;;;;;;;4.80;4.30;;;16.20;99.90;;;;;;5034796;28;20420;-71
2021/08/20 02:16:20;;;;;;;4.63;4.13;;;16.20;99.90;;;;;;5034915;28;20165;-70
2021/08/20 02:18:45;;;;;;;6.00;4.50;;;16.20;99.90;;;;;;5035013;28;20400;-69
2021/08/20 02:21:11;;;;;;;5.87;4.90;;;16.20;99.90;;;;;;5034979;28;20161;-70
2021/08/20 02:23:38;;;;;;;5.17;4.10;;;16.20;99.90;;;;;;5034920;28;20630;-70
2021/08/20 02:26:04;;;;;;;7.43;4.90;;;16.20;99.90;;;;;;5034990;28;20615;-69
2021/08/20 02:28:30;;;;;;;6.07;4.60;;;16.10;99.90;;;;;;5034790;28;20404;-69
2021/08/20 02:30:55;;;;;;;6.13;4.70;;;16.10;99.90;;;;;;5034497;28;20422;-70
2021/08/20 02:33:21;;;;;;;6.40;4.30;;;16.10;99.90;;;;;;5034756;28;20157;-69
2021/08/20 02:35:46;;;;;;;4.87;4.07;;;16.10;99.90;;;;;;5034568;28;20183;-70
2021/08/20 02:38:12;;;;;;;6.70;4.13;;;16.10;99.90;;;;;;5034990;28;20248;-70
2021/08/20 02:40:37;;;;;;;7.80;4.80;;;16.10;99.90;;;;;;5034591;28;20164;-70
2021/08/20 02:43:03;;;;;;;6.20;4.60;;;16.10;99.90;;;;;;5034487;28;20168;-70
2021/08/20 02:45:29;;;;;;;5.20;4.70;;;16.10;99.90;;;;;;5034303;28;20599;-70
2021/08/20 02:47:54;;;;;;;4.57;4.07;;;16.10;99.90;;;;;;5034035;28;20231;-70
2021/08/20 02:50:20;;;;;;;5.73;5.10;;;16.10;99.90;;;;;;5034947;28;20164;-70
2021/08/20 02:52:46;;;;;;;5.50;4.90;;;16.10;99.90;;;;;;5034413;28;20196;-71
2021/08/20 02:55:11;;;;;;;5.60;4.67;;;16.10;99.90;;;;;;5034320;28;20255;-71
2021/08/20 02:57:37;;;;;;;5.20;4.70;;;16.10;99.90;;;;;;5034192;28;20161;-71
2021/08/20 03:00:04;;;;;;;9.00;5.60;;;16.10;99.90;;;;;;5034162;28;20205;-71
2021/08/20 03:02:29;;;;;;;7.53;6.10;;;16.10;99.90;;;;;;5034354;28;20396;-71
2021/08/20 03:04:55;;;;;;;8.60;5.57;;;16.10;99.90;;;;;;5033575;28;20430;-71
2021/08/20 03:07:20;;;;;;;4.80;4.30;;;16.10;99.90;;;;;;5034059;28;20189;-71
2021/08/20 03:09:46;;;;;;;5.23;4.50;;;16.10;99.90;;;;;;5034040;28;20175;-71
2021/08/20 03:12:12;;;;;;;5.80;4.90;;;16.10;99.90;;;;;;5034132;28;20164;-71
2021/08/20 03:14:37;;;;;;;6.13;4.50;;;16.10;99.90;;;;;;5034073;28;20157;-71
2021/08/20 03:17:03;;;;;;;6.13;5.53;;;16.10;99.90;;;;;;5033864;28;20200;-71
2021/08/20 03:19:29;;;;;;;6.33;5.40;;;16.10;99.90;;;;;;5034031;28;20642;-71
2021/08/20 03:21:55;;;;;;;6.70;6.00;;;16.00;99.90;;;;;;5033640;28;20208;-71
2021/08/20 03:24:20;;;;;;;8.47;7.60;;;16.00;99.90;;;;;;5033795;28;20391;-71
2021/08/20 03:26:46;;;;;;;7.10;5.73;;;16.00;99.90;;;;;;5033613;28;20185;-71
2021/08/20 03:29:12;;;;;;;8.30;6.00;;;16.00;99.90;;;;;;5033680;28;20518;-71
2021/08/20 03:31:37;;;;;;;9.83;7.23;;;16.00;99.90;;;;;;5033615;28;20160;-71
2021/08/20 03:34:03;;;;;;;7.20;6.17;;;16.00;99.90;;;;;;5033504;28;20161;-71
2021/08/20 03:36:28;;;;;;;9.37;6.80;;;15.90;99.90;;;;;;5021528;28;20189;-71
2021/08/20 03:38:54;;;;;;;7.73;6.53;;;15.90;99.90;;;;;;5017106;28;20531;-71
2021/08/20 03:41:21;;;;;;;7.63;6.50;;;15.80;99.90;;;;;;5033157;28;20618;-71
2021/08/20 03:43:47;;;;;;;9.30;7.60;;;15.90;99.90;;;;;;5033228;28;20416;-71
2021/08/20 03:46:14;;;;;;;8.83;7.00;;;15.80;99.90;;;;;;5031314;28;20912;-71
2021/08/20 03:48:42;;;;;;;8.77;7.03;;;15.80;99.90;;;;;;5033219;28;20173;-71
2021/08/20 03:51:08;;;;;;;10.37;6.90;;;15.80;99.90;;;;;;5032009;28;20799;-71
2021/08/20 03:53:33;;;;;;;9.13;7.53;;;15.80;99.90;;;;;;5033163;28;20400;-71
2021/08/20 03:55:59;;;;;;;10.90;7.70;;;15.80;99.90;;;;;;5032772;28;20177;-71
2021/08/20 03:58:24;;;;;;;11.93;7.67;;;15.90;99.90;;;;;;5033094;28;20159;-71
2021/08/20 04:00:53;;;;;;;10.00;7.53;;;15.80;99.90;;;;;;5032986;28;20149;-71
2021/08/20 04:03:20;;;;;;;10.40;7.77;;;15.80;99.90;;;;;;5033193;28;20149;-71
2021/08/20 04:05:46;;;;;;;9.40;8.07;;;15.80;99.90;;;;;;5028844;28;20425;-71
2021/08/20 04:08:12;;;;;;;11.23;8.00;;;15.80;99.90;;;;;;5013187;28;20462;-71
2021/08/20 04:10:39;;;;;;;12.63;9.03;;;15.80;99.90;;;;;;5013277;28;20760;-71
2021/08/20 04:13:04;;;;;;;11.30;8.60;;;15.70;99.90;;;;;;5017743;28;20415;-71
2021/08/20 04:15:30;;;;;;;10.73;8.47;;;15.70;99.90;;;;;;5032803;28;20388;-71
2021/08/20 04:17:55;;;;;;;15.63;10.27;;;15.70;99.90;;;;;;5032541;28;20211;-71
2021/08/20 04:20:21;;;;;;;12.53;9.03;;;15.70;99.90;;;;;;5032999;28;20168;-70
2021/08/20 04:22:47;;;;;;;9.87;7.80;;;15.70;99.90;;;;;;5032615;28;20157;-70
2021/08/20 04:25:12;;;;;;;16.00;9.40;;;15.60;99.90;;;;;;5032547;28;20194;-70
2021/08/20 04:27:38;;;;;;;10.17;7.70;;;15.60;99.90;;;;;;5032698;28;20712;-70
2021/08/20 04:30:04;;;;;;;14.20;10.37;;;15.60;99.90;;;;;;5031977;28;20169;-70
2021/08/20 04:32:29;;;;;;;11.90;9.83;;;15.50;99.90;;;;;;5022894;28;20224;-70
2021/08/20 04:34:55;;;;;;;13.90;10.20;;;15.60;99.90;;;;;;5011246;28;20248;-71
2021/08/20 04:37:23;;;;;;;13.23;8.90;;;15.50;99.90;;;;;;5010782;28;20259;-71
2021/08/20 04:39:48;;;;;;;12.33;9.60;;;15.50;99.90;;;;;;5024059;28;20701;-71
2021/08/20 04:42:14;;;;;;;11.77;9.23;;;15.50;99.90;;;;;;5029218;28;20446;-71
2021/08/20 04:44:39;;;;;;;16.17;9.37;;;15.50;99.90;;;;;;5030187;28;20173;-71
2021/08/20 04:47:05;;;;;;;11.43;9.20;;;15.50;99.90;;;;;;5029386;28;20204;-71
2021/08/20 04:49:30;;;;;;;9.93;8.23;;;15.50;99.90;;;;;;5036330;28;20184;-71
2021/08/20 04:51:56;;;;;;;12.20;8.87;;;15.50;99.90;;;;;;5041484;28;20172;-71
2021/08/20 04:54:21;;;;;;;14.33;9.00;;;15.50;99.90;;;;;;5052050;28;20167;-70
2021/08/20 04:56:49;;;;;;;12.10;8.47;;;15.50;99.90;;;;;;5044828;28;20195;-71
2021/08/20 04:59:14;;;;;;;8.70;7.80;;;15.50;99.90;;;;;;5032191;28;20195;-71
2021/08/20 05:01:40;;;;;;;10.00;7.63;;;15.50;99.90;;;;;;5031565;28;20928;-71
2021/08/20 05:04:05;;;;;;;10.47;8.60;;;15.50;99.90;;;;;;5032191;28;20180;-71
2021/08/20 05:06:31;;;;;;;9.77;7.30;;;15.50;99.90;;;;;;5031976;28;20572;-71
2021/08/20 05:08:57;;;;;;;9.67;7.60;;;15.50;99.90;;;;;;5050510;28;20184;-71
2021/08/20 05:11:22;;;;;;;9.77;8.10;;;15.50;99.90;;;;;;5052038;28;20164;-71
2021/08/20 05:13:48;;;;;;;11.00;7.57;;;15.60;99.90;;;;;;5048988;28;20200;-71
2021/08/20 05:16:13;;;;;;;9.00;6.57;;;15.60;99.90;;;;;;5029686;28;20179;-71
2021/08/20 05:18:39;;;;;;;12.00;7.57;;;15.60;99.90;;;;;;5013784;28;20284;-71
2021/08/20 05:21:04;;;;;;;12.97;7.47;;;15.60;99.90;;;;;;5047012;28;20184;-71
2021/08/20 05:23:30;;;;;;;10.50;7.00;;;15.70;99.90;;;;;;5031892;28;20214;-71
2021/08/20 05:25:55;;;;;;;10.70;7.97;;;15.70;99.90;;;;;;5026668;28;20536;-71
2021/08/20 05:28:21;;;;;;;10.23;8.20;;;15.70;99.90;;;;;;5020967;28;20217;-71
2021/08/20 05:30:47;;;;;;;10.50;7.93;;;15.70;99.90;;;;;;5034777;28;20189;-71
2021/08/20 05:33:12;;;;;;;9.73;7.60;;;15.70;99.90;;;;;;5034127;28;20248;-71
2021/08/20 05:35:40;;;;;;;9.20;7.30;;;15.70;99.90;;;;;;5031581;28;20173;-71
2021/08/20 05:38:05;;;;;;;11.73;7.87;;;15.80;99.90;;;;;;5031592;28;20177;-71
2021/08/20 05:40:31;;;;;;;13.77;6.87;;;15.90;99.90;;;;;;5031892;28;20765;-71
2021/08/20 05:42:58;;;;;;;8.23;6.60;;;15.90;99.90;;;;;;5037536;28;20185;-71
2021/08/20 05:45:24;;;;;;;9.90;6.60;;;15.90;99.90;;;;;;5041835;28;20180;-71
2021/08/20 05:47:49;;;;;;;7.20;5.70;;;16.00;99.90;;;;;;5036837;28;20454;-71
2021/08/20 05:50:15;;;;;;;8.13;7.23;;;16.00;99.90;;;;;;5044580;28;20172;-71
2021/08/20 05:52:40;;;;;;;13.50;7.37;;;16.00;99.90;;;;;;5045587;28;20176;-71
2021/08/20 05:55:07;;;;;;;9.53;7.40;;;16.10;99.90;;;;;;5038457;28;20239;-71
2021/08/20 05:57:33;;;;;;;9.67;6.67;;;16.20;99.90;;;;;;5034527;28;20175;-71
2021/08/20 05:59:59;;;;;;;12.23;7.30;;;16.20;99.90;;;;;;5033864;28;20439;-71
2021/08/20 06:02:24;;;;;;;9.40;7.20;;;16.30;99.90;;;;;;5032224;28;20277;-71
2021/08/20 06:04:50;;;;;;;10.87;8.17;;;16.30;99.90;;;;;;5037515;28;20716;-71
2021/08/20 06:07:15;;;;;;;13.77;7.60;;;16.40;99.90;;;;;;5033906;28;20736;-71
2021/08/20 06:09:41;;;;;;;13.50;8.47;;;16.40;99.90;;;;;;5031370;28;20688;-71
2021/08/20 06:12:07;;;;;;;11.77;7.50;;;16.50;99.90;;;;;;5034492;28;20250;-71
2021/08/20 06:14:33;;;;;;;10.70;8.63;;;16.50;99.90;;;;;;5043246;28;20199;-71
2021/08/20 06:16:59;;;;;;;12.70;7.00;;;16.50;99.90;;;;;;5031398;28;20421;-71
2021/08/20 06:19:26;;;;;;;8.67;6.30;;;16.50;99.90;;;;;;5033014;28;20438;-71
2021/08/20 06:21:52;;;;;;;9.13;6.67;;;16.50;99.90;;;;;;5030818;28;20185;-71
2021/08/20 06:24:18;;;;;;;10.27;7.70;;;16.50;99.90;;;;;;5035464;28;20514;-71
2021/08/20 06:26:47;;;;;;;11.40;7.20;;;16.60;99.90;;;;;;5036458;28;20547;-71
2021/08/20 06:29:15;;;;;;;13.03;7.93;;;16.60;99.90;;;;;;5032109;28;20532;-71
2021/08/20 06:31:40;;;;;;;10.23;7.50;;;16.70;99.90;;;;;;5029789;28;20403;-71
2021/08/20 06:34:06;;;;;;;11.43;8.20;;;16.80;99.90;;;;;;5028750;28;20485;-71
2021/08/20 06:36:31;;;;;;;14.27;8.93;;;16.80;99.90;;;;;;5029954;28;20171;-71
2021/08/20 06:38:57;;;;;;;14.40;9.73;;;16.90;99.90;;;;;;5027184;28;20661;-71
2021/08/20 06:41:23;;;;;;;14.50;9.00;;;16.90;99.90;;;;;;5031685;28;20169;-71
2021/08/20 06:43:48;;;;;;;16.43;8.10;;;17.00;99.90;;;;;;5028738;28;20322;-71
2021/08/20 06:46:14;;;;;;;11.10;7.67;;;17.00;99.90;;;;;;5026849;28;20209;-71
2021/08/20 06:48:40;;;;;;;13.60;9.10;;;17.10;99.90;;;;;;5027652;28;20180;-71
2021/08/20 06:51:05;;;;;;;11.53;9.23;;;17.10;99.90;;;;;;5028518;28;20276;-71
2021/08/20 06:53:31;;;;;;;12.30;8.93;;;17.10;99.90;;;;;;5028891;28;20165;-71
2021/08/20 06:55:56;;;;;;;13.20;8.80;;;17.20;99.90;;;;;;5024195;28;20183;-71
2021/08/20 06:58:22;;;;;;;13.57;8.07;;;17.30;99.90;;;;;;5035176;28;20189;-71
2021/08/20 07:00:48;;;;;;;14.93;10.17;;;17.50;99.90;;;;;;5027039;28;20188;-71
2021/08/20 07:03:16;;;;;;;14.70;8.00;;;17.60;99.90;;;;;;5024739;28;20262;-71
2021/08/20 07:05:42;;;;;;;15.60;8.70;;;17.80;99.90;;;;;;5038094;28;20197;-71
2021/08/20 07:08:07;;;;;;;11.50;7.80;;;17.80;99.90;;;;;;5030553;28;20450;-71
2021/08/20 07:10:33;;;;;;;12.00;8.40;;;17.90;99.90;;;;;;5026338;28;20188;-71
2021/08/20 07:12:59;;;;;;;12.63;8.43;;;18.00;99.90;;;;;;5029066;28;20776;-71
2021/08/20 07:15:25;;;;;;;12.60;9.37;;;18.00;99.90;;;;;;5028525;28;20427;-71
2021/08/20 07:17:50;;;;;;;13.57;9.33;;;18.10;99.90;;;;;;5027530;28;20212;-71
2021/08/20 07:20:16;;;;;;;10.47;7.87;;;18.20;99.90;;;;;;5032111;28;20189;-71
2021/08/20 07:22:41;;;;;;;10.37;8.00;;;18.30;99.90;;;;;;5033572;28;20190;-71
2021/08/20 07:25:07;;;;;;;14.37;9.43;;;18.40;99.90;;;;;;5037212;28;20172;-71
2021/08/20 07:27:33;;;;;;;13.80;9.50;;;18.40;99.90;;;;;;5031860;28;20273;-72
2021/08/20 07:29:58;;;;;;;11.43;8.50;;;18.50;99.90;;;;;;5028716;28;20411;-71
2021/08/20 07:32:24;;;;;;;13.50;8.67;;;18.50;99.90;;;;;;5027453;28;20184;-71
2021/08/20 07:34:49;;;;;;;14.40;9.80;;;18.60;99.90;;;;;;5026827;28;20238;-71
2021/08/20 07:37:15;;;;;;;11.90;9.83;;;18.70;99.90;;;;;;5031639;28;20516;-71
2021/08/20 07:39:40;;;;;;;15.03;9.80;;;18.80;99.90;;;;;;5031540;28;20196;-71
2021/08/20 07:42:07;;;;;;;11.50;8.20;;;18.90;99.90;;;;;;5037511;28;20642;-71
2021/08/20 07:44:33;;;;;;;10.00;8.33;;;18.90;99.90;;;;;;5033442;28;20207;-71
2021/08/20 07:46:59;;;;;;;10.83;8.73;;;19.00;99.90;;;;;;5041445;28;20880;-71
2021/08/20 07:49:25;;;;;;;15.03;9.40;;;19.10;99.90;;;;;;5029918;28;20499;-71
2021/08/20 07:51:51;;;;;;;13.53;9.27;;;19.30;99.90;;;;;;5031284;28;20420;-71
2021/08/20 07:54:17;;;;;;;15.80;9.33;;;19.30;99.90;;;;;;5029140;28;20994;-71
2021/08/20 07:56:42;;;;;;;15.03;9.90;;;19.40;99.90;;;;;;5027796;28;20473;-71
2021/08/20 07:59:08;;;;;;;11.20;8.87;;;19.50;99.90;;;;;;5016158;28;20240;-71
2021/08/20 08:01:34;;;;;;;12.80;8.33;;;19.60;99.90;;;;;;5011244;28;20304;-71
2021/08/20 08:04:00;;;;;;;12.77;9.17;;;19.60;99.90;;;;;;5030545;28;20201;-71
2021/08/20 08:06:26;;;;;;;12.53;9.47;;;19.60;99.90;;;;;;5031612;28;20928;-71
2021/08/20 08:08:52;;;;;;;10.57;9.00;;;19.60;99.90;;;;;;5028140;28;20561;-71
2021/08/20 08:11:19;;;;;;;12.70;8.80;;;19.70;99.90;;;;;;5032435;28;20458;-71
2021/08/20 08:13:44;;;;;;;12.03;7.97;;;19.80;99.90;;;;;;5032548;28;20519;-71
2021/08/20 08:16:10;;;;;;;10.23;9.10;;;19.90;99.90;;;;;;5031995;28;20422;-71
2021/08/20 08:18:36;;;;;;;11.27;8.60;;;20.00;99.90;;;;;;5032888;28;20591;-71
2021/08/20 08:21:02;;;;;;;12.87;8.83;;;20.10;99.90;;;;;;5029383;28;20630;-71
2021/08/20 08:23:27;;;;;;;11.43;9.10;;;20.20;99.90;;;;;;5032279;28;20165;-71
2021/08/20 08:25:53;;;;;;;15.90;9.40;;;20.30;99.90;;;;;;5034291;28;20844;-71
2021/08/20 08:28:21;;;;;;;14.63;11.10;;;20.50;99.90;;;;;;5032392;28;20657;-71
2021/08/20 08:30:48;;;;;;;15.27;10.17;;;20.80;99.90;;;;;;5032565;28;20159;-72
2021/08/20 08:33:15;;;;;;;12.07;10.50;;;21.00;99.90;;;;;;5037284;28;20438;-71
2021/08/20 08:35:42;;;;;;;16.63;10.90;;;20.90;99.90;;;;;;5029418;28;20431;-71
2021/08/20 08:38:11;;;;;;;13.10;9.23;;;20.90;99.90;;;;;;5023944;28;20874;-71
2021/08/20 08:40:39;;;;;;;14.90;11.13;;;20.90;99.90;;;;;;5024998;28;20419;-71
2021/08/20 08:43:06;;;;;;;15.47;10.40;;;20.90;99.90;;;;;;5032116;28;20415;-71
2021/08/20 08:45:32;;;;;;;11.70;10.23;;;20.90;99.90;;;;;;5028199;28;20423;-71
2021/08/20 08:48:02;;;;;;;12.50;9.07;;;21.00;99.90;;;;;;5032166;28;20593;-71
2021/08/20 08:50:29;;;;;;;12.87;10.13;;;21.00;99.90;;;;;;5031529;28;20418;-71
2021/08/20 08:52:55;;;;;;;12.50;10.30;;;21.00;99.90;;;;;;5031271;28;20482;-71
2021/08/20 08:55:20;;;;;;;12.50;8.87;;;21.00;99.90;;;;;;5031136;28;20494;-71
2021/08/20 08:57:46;;;;;;;12.20;8.77;;;20.90;99.90;;;;;;5032539;28;20173;-72
2021/08/20 09:00:12;;;;;;;9.50;8.50;;;20.80;99.90;;;;;;5030893;28;20189;-72
2021/08/20 09:02:38;;;;;;;16.90;9.63;;;20.70;99.90;;;;;;5042198;28;20625;-72
2021/08/20 09:05:06;;;;;;;10.17;7.83;;;20.80;99.90;;;;;;5056368;28;20425;-72
2021/08/20 09:07:35;;;;;;;15.00;11.97;;;20.80;99.90;;;;;;5040068;28;20203;-72
2021/08/20 09:10:12;;;;;;;11.03;8.70;;;20.90;99.90;;;;;;5040130;28;20427;-72
2021/08/20 09:12:41;;;;;;;7.60;6.43;;;21.10;99.90;;;;;;5036216;28;20427;-72
2021/08/20 09:15:07;;;;;;;9.40;6.70;;;21.20;99.90;;;;;;5036609;28;20386;-72
2021/08/20 09:17:34;;;;;;;12.50;8.27;;;21.20;99.90;;;;;;5036283;28;20403;-72
2021/08/20 09:20:18;;;;;;;17.07;10.37;;;21.30;99.90;;;;;;5033346;28;20418;-72
2021/08/20 09:22:45;;;;;;;8.77;6.50;;;21.30;99.90;;;;;;5035936;28;20403;-72
2021/08/20 09:28:30;;;;;;;7.97;6.40;;;21.30;99.90;;;;;;5110533;27;20497;-71
2021/08/20 09:33:36;;;;;;;7.50;6.73;;;21.20;99.90;;;;;;5069520;28;20524;-72
2021/08/20 09:36:09;;;;;;;7.57;6.77;;;21.60;99.90;;;;;;5067040;28;20624;-72
2021/08/20 09:38:38;;;;;;;9.17;5.73;;;21.80;99.90;;;;;;5050121;28;20453;-72
2021/08/20 09:41:07;;;;;;;8.53;6.07;;;22.00;99.90;;;;;;5049834;28;20919;-72
2021/08/20 09:43:35;;;;;;;7.80;6.20;;;22.20;99.90;;;;;;5050070;28;20383;-72
2021/08/20 09:54:18;;;;;;;2.93;2.40;;;23.00;99.90;;;;;;5172625;27;20509;-71
2021/08/20 09:56:45;;;;;;;6.57;4.80;;;23.20;99.90;;;;;;5159487;27;20803;-70
2021/08/20 09:59:12;;;;;;;4.30;3.60;;;23.20;99.90;;;;;;5130390;27;20495;-70
2021/08/20 10:01:40;;;;;;;4.10;3.33;;;23.10;99.90;;;;;;5139172;27;20406;-70
2021/08/20 10:04:10;;;;;;;4.20;3.60;;;23.00;99.90;;;;;;5149540;27;20382;-70
2021/08/20 10:06:38;;;;;;;5.80;3.90;;;22.90;99.90;;;;;;5139246;27;20783;-72
2021/08/20 10:09:06;;;;;;;4.60;3.63;;;22.90;99.90;;;;;;5144586;27;20433;-71
2021/08/20 10:11:34;;;;;;;5.87;4.07;;;22.90;99.90;;;;;;5143251;27;20412;-71
2021/08/20 10:14:01;;;;;;;5.00;3.47;;;22.80;99.90;;;;;;5148981;27;20457;-70
2021/08/20 10:16:30;;;;;;;4.67;3.13;;;22.70;99.90;;;;;;5139826;27;20426;-70
2021/08/20 10:18:58;;;;;;;4.33;3.20;;;22.60;99.90;;;;;;5128707;28;20431;-70
2021/08/20 10:21:23;;;;;;;3.77;3.10;;;22.50;99.90;;;;;;5148578;27;20421;-70
2021/08/20 10:23:49;;;;;;;3.73;3.27;;;22.40;99.90;;;;;;5149712;27;20425;-70
2021/08/20 10:26:15;;;;;;;3.83;3.53;;;22.30;99.90;;;;;;5150409;27;20153;-70
2021/08/20 10:28:42;;;;;;;4.33;3.90;;;22.10;99.90;;;;;;5148172;27;20517;-70
2021/08/20 10:31:10;;;;;;;3.90;3.10;;;22.00;99.90;;;;;;5150647;27;20414;-70
2021/08/20 10:33:37;;;;;;;3.97;3.50;;;21.80;99.90;;;;;;5149270;27;20446;-70
2021/08/20 10:36:04;;;;;;;4.53;4.10;;;21.60;99.90;;;;;;5149140;27;20473;-70
2021/08/20 10:44:03;;;;;;;5.90;4.50;;;21.10;99.90;;;;;;5127533;27;20635;-71
2021/08/20 10:57:29;;;;;;;7.07;5.70;;;20.90;99.90;;;;;;5089933;28;20608;-71
2021/08/20 10:59:55;;;;;;;5.80;5.20;;;20.20;99.90;;;;;;5083388;28;21015;-71
2021/08/20 11:18:06;;;;;;;4.27;3.43;;;20.00;99.90;;;;;;5063708;28;20660;-71
2021/08/20 11:20:50;;;;;;;5.77;3.60;;;20.30;99.90;;;;;;5064487;28;20424;-72
2021/08/20 11:23:17;;;;;;;2.77;2.53;;;20.50;99.90;;;;;;5065244;28;20890;-72
2021/08/20 11:33:42;;;;;;;2.93;2.10;;;20.60;99.90;;;;;;5055266;28;20521;-72
2021/08/20 11:36:13;;;;;;;2.43;2.23;;;20.80;99.90;;;;;;5051235;28;20418;-72
2021/08/20 11:38:44;;;;;;;3.13;2.80;;;20.90;99.90;;;;;;5050855;28;20924;-72
2021/08/20 11:46:36;;;;;;;3.90;2.60;;;21.50;99.90;;;;;;5070377;28;20504;-71
2021/08/20 11:49:02;;;;;;;3.77;2.23;;;21.70;99.90;;;;;;5070292;28;20398;-72
2021/08/20 11:54:09;;;;;;;2.70;1.87;;;22.00;99.90;;;;;;5090176;28;20967;-72
2021/08/20 11:56:36;;;;;;;4.00;2.30;;;22.10;99.90;;;;;;5090109;28;20396;-72
2021/08/20 11:59:08;;;;;;;2.27;2.07;;;22.30;99.90;;;;;;5089700;28;20771;-72
2021/08/20 12:01:34;;;;;;;1.90;1.80;;;22.30;99.90;;;;;;5085307;28;20413;-71
2021/08/20 12:04:01;;;;;;;1.90;1.70;;;22.20;99.90;;;;;;5070199;28;20390;-71
2021/08/20 12:06:28;;;;;;;2.57;1.93;;;22.10;99.90;;;;;;5081304;28;20505;-72
2021/08/20 12:08:57;;;;;;;1.57;1.47;;;22.10;99.90;;;;;;5086857;28;20410;-72
2021/08/20 12:11:27;;;;;;;4.03;1.63;;;22.00;99.90;;;;;;5089790;28;20408;-72
2021/08/20 12:13:55;;;;;;;1.90;1.70;;;22.00;99.90;;;;;;5069725;28;20494;-72
2021/08/20 12:16:42;;;;;;;2.30;1.70;;;21.90;99.90;;;;;;5069485;28;20401;-71
2021/08/20 12:19:30;;;;;;;1.87;1.77;;;21.90;99.90;;;;;;5068726;28;20396;-71
2021/08/20 12:22:04;;;;;;;1.63;1.53;;;22.00;99.90;;;;;;5068373;28;20394;-72
2021/08/20 12:27:11;;;;;;;2.00;1.80;;;21.90;99.90;;;;;;5057081;28;20547;-72
2021/08/20 12:29:37;;;;;;;2.40;1.50;;;21.90;99.90;;;;;;5049828;28;20410;-72
2021/08/20 12:32:03;;;;;;;1.93;1.83;;;22.00;99.90;;;;;;5050120;28;20383;-71
2021/08/20 12:34:31;;;;;;;1.53;1.27;;;22.10;99.90;;;;;;5049859;28;20449;-72
2021/08/20 12:36:58;;;;;;;1.53;1.40;;;22.10;99.90;;;;;;5049638;28;20207;-72
2021/08/20 12:39:41;;;;;;;1.60;1.50;;;22.10;99.90;;;;;;5049915;28;20476;-72
2021/08/20 12:42:27;;;;;;;2.20;1.80;;;22.10;99.90;;;;;;5031801;28;20915;-72
2021/08/20 12:45:18;;;;;;;3.00;1.90;;;22.10;99.90;;;;;;5061897;28;20402;-71
2021/08/20 12:47:46;;;;;;;2.03;1.67;;;22.10;99.90;;;;;;5049800;28;20425;-72
2021/08/20 12:50:14;;;;;;;1.47;1.37;;;22.30;99.90;;;;;;5049529;28;20399;-72
2021/08/20 12:52:41;;;;;;;1.73;1.63;;;22.40;99.90;;;;;;5049475;28;20402;-72
2021/08/20 12:55:31;;;;;;;2.43;2.07;;;22.40;99.90;;;;;;5049337;28;20755;-72
2021/08/20 12:57:58;;;;;;;1.40;1.30;;;22.40;99.90;;;;;;5049532;28;20418;-72
2021/08/20 13:00:25;;;;;;;2.00;1.90;;;22.50;99.90;;;;;;5048936;28;20944;-72
2021/08/20 13:02:52;;;;;;;1.50;1.40;;;22.60;99.90;;;;;;5049474;28;20891;-72
2021/08/20 13:05:17;;;;;;;1.60;1.50;;;22.70;99.90;;;;;;5048915;28;20979;-72
2021/08/20 13:07:43;;;;;;;1.73;1.63;;;22.70;99.90;;;;;;5049403;28;20393;-72
2021/08/20 13:10:09;;;;;;;1.50;1.40;;;22.80;99.90;;;;;;5049076;28;20163;-72
2021/08/20 13:12:34;;;;;;;1.53;1.37;;;22.90;99.90;;;;;;5048621;28;20279;-72
2021/08/20 13:15:00;;;;;;;1.60;1.50;;;22.90;99.90;;;;;;5049026;28;20583;-72
2021/08/20 13:17:25;;;;;;;1.63;1.50;;;22.90;99.90;;;;;;5048817;28;20182;-72
2021/08/20 13:19:51;;;;;;;1.70;1.60;;;22.80;99.90;;;;;;5047731;28;20168;-72
2021/08/20 13:22:17;;;;;;;2.03;1.67;;;22.70;99.90;;;;;;5048953;28;20159;-72
2021/08/20 13:24:43;;;;;;;1.63;1.53;;;22.60;99.90;;;;;;5048905;28;20563;-72
2021/08/20 13:27:09;;;;;;;2.30;1.37;;;22.50;99.90;;;;;;5048851;28;20214;-71
2021/08/20 13:29:35;;;;;;;1.67;1.57;;;22.40;99.90;;;;;;5049012;28;20156;-71
2021/08/20 13:32:01;;;;;;;2.70;2.50;;;22.20;99.90;;;;;;5048910;28;20415;-72
2021/08/20 13:34:27;;;;;;;1.30;1.20;;;22.10;99.90;;;;;;5048433;28;20829;-72
2021/08/20 13:36:53;;;;;;;1.47;1.27;;;22.10;99.90;;;;;;5044340;28;20165;-72
2021/08/20 13:39:19;;;;;;;3.10;1.60;;;22.00;99.90;;;;;;5035161;28;20192;-72
2021/08/20 13:41:45;;;;;;;2.07;1.40;;;21.90;99.90;;;;;;5033268;28;20396;-71
2021/08/20 13:44:10;;;;;;;1.50;1.40;;;21.90;99.90;;;;;;5015736;28;20423;-71
2021/08/20 13:46:36;;;;;;;1.77;1.17;;;21.90;99.90;;;;;;5015440;28;20544;-71